sensor_id;sensor_type;location;lat;lon;timestamp;P1;durP1;ratioP1;P2;durP2;ratioP2
63050;SDS011;49136;47.416;19.402;2023-07-24T00:00:59;497.27;;;459.65;;
63050;SDS011;49136;47.416;19.402;2023-07-24T00:03:24;552.40;;;509.58;;
63050;SDS011;49136;47.416;19.402;2023-07-24T00:05:50;559.55;;;515.53;;
63050;SDS011;49136;47.416;19.402;2023-07-24T00:08:15;543.97;;;501.05;;
63050;SDS011;49136;47.416;19.402;2023-07-24T00:10:40;539.95;;;497.40;;
63050;SDS011;49136;47.416;19.402;2023-07-24T00:13:06;542.20;;;499.48;;
63050;SDS011;49136;47.416;19.402;2023-07-24T00:15:32;556.60;;;512.15;;
63050;SDS011;49136;47.416;19.402;2023-07-24T00:17:57;553.83;;;508.02;;
63050;SDS011;49136;47.416;19.402;2023-07-24T00:20:23;546.33;;;500.88;;
63050;SDS011;49136;47.416;19.402;2023-07-24T00:22:49;533.42;;;488.42;;
63050;SDS011;49136;47.416;19.402;2023-07-24T00:25:15;476.13;;;434.13;;
63050;SDS011;49136;47.416;19.402;2023-07-24T00:27:40;470.42;;;430.85;;
63050;SDS011;49136;47.416;19.402;2023-07-24T00:30:06;410.08;;;375.63;;
63050;SDS011;49136;47.416;19.402;2023-07-24T00:32:32;453.05;;;415.85;;
63050;SDS011;49136;47.416;19.402;2023-07-24T00:34:57;468.42;;;429.15;;
63050;SDS011;49136;47.416;19.402;2023-07-24T00:37:23;514.22;;;470.48;;
63050;SDS011;49136;47.416;19.402;2023-07-24T00:39:49;494.92;;;453.42;;
63050;SDS011;49136;47.416;19.402;2023-07-24T00:42:14;487.20;;;446.45;;
63050;SDS011;49136;47.416;19.402;2023-07-24T00:44:40;522.90;;;479.45;;
63050;SDS011;49136;47.416;19.402;2023-07-24T00:47:05;522.53;;;477.85;;
63050;SDS011;49136;47.416;19.402;2023-07-24T00:49:31;480.02;;;440.58;;
63050;SDS011;49136;47.416;19.402;2023-07-24T00:51:57;490.42;;;450.05;;
63050;SDS011;49136;47.416;19.402;2023-07-24T00:54:22;511.83;;;469.48;;
63050;SDS011;49136;47.416;19.402;2023-07-24T00:56:48;501.35;;;460.38;;
63050;SDS011;49136;47.416;19.402;2023-07-24T00:59:14;496.70;;;456.92;;
63050;SDS011;49136;47.416;19.402;2023-07-24T01:01:40;537.22;;;493.17;;
63050;SDS011;49136;47.416;19.402;2023-07-24T01:04:06;501.73;;;461.05;;
63050;SDS011;49136;47.416;19.402;2023-07-24T01:06:32;531.15;;;488.00;;
63050;SDS011;49136;47.416;19.402;2023-07-24T01:08:58;510.30;;;469.17;;
63050;SDS011;49136;47.416;19.402;2023-07-24T01:11:32;486.27;;;447.75;;
63050;SDS011;49136;47.416;19.402;2023-07-24T01:16:59;501.15;;;461.95;;
63050;SDS011;49136;47.416;19.402;2023-07-24T01:19:42;513.33;;;471.83;;
63050;SDS011;49136;47.416;19.402;2023-07-24T01:22:22;486.63;;;447.52;;
63050;SDS011;49136;47.416;19.402;2023-07-24T01:27:56;499.08;;;460.80;;
63050;SDS011;49136;47.416;19.402;2023-07-24T01:30:22;497.95;;;457.70;;
63050;SDS011;49136;47.416;19.402;2023-07-24T01:32:47;502.13;;;461.20;;
63050;SDS011;49136;47.416;19.402;2023-07-24T01:35:13;487.83;;;449.67;;
63050;SDS011;49136;47.416;19.402;2023-07-24T01:37:39;495.05;;;454.50;;
63050;SDS011;49136;47.416;19.402;2023-07-24T01:40:07;479.20;;;442.20;;
63050;SDS011;49136;47.416;19.402;2023-07-24T01:42:34;480.90;;;444.52;;
63050;SDS011;49136;47.416;19.402;2023-07-24T01:45:01;552.33;;;508.48;;
63050;SDS011;49136;47.416;19.402;2023-07-24T01:47:27;605.90;;;554.60;;
63050;SDS011;49136;47.416;19.402;2023-07-24T01:49:53;571.47;;;524.90;;
63050;SDS011;49136;47.416;19.402;2023-07-24T01:52:19;560.63;;;515.38;;
63050;SDS011;49136;47.416;19.402;2023-07-24T01:54:44;578.42;;;531.50;;
63050;SDS011;49136;47.416;19.402;2023-07-24T01:57:10;562.15;;;515.72;;
63050;SDS011;49136;47.416;19.402;2023-07-24T01:59:35;537.00;;;491.42;;
63050;SDS011;49136;47.416;19.402;2023-07-24T02:02:00;574.63;;;526.42;;
63050;SDS011;49136;47.416;19.402;2023-07-24T02:04:26;558.95;;;512.55;;
63050;SDS011;49136;47.416;19.402;2023-07-24T02:06:51;558.60;;;511.92;;
63050;SDS011;49136;47.416;19.402;2023-07-24T02:09:20;560.38;;;514.63;;
63050;SDS011;49136;47.416;19.402;2023-07-24T02:11:45;536.25;;;491.98;;
63050;SDS011;49136;47.416;19.402;2023-07-24T02:14:11;526.97;;;482.92;;
63050;SDS011;49136;47.416;19.402;2023-07-24T02:16:38;583.42;;;534.65;;
63050;SDS011;49136;47.416;19.402;2023-07-24T02:19:03;569.55;;;521.83;;
63050;SDS011;49136;47.416;19.402;2023-07-24T02:21:29;573.40;;;525.13;;
63050;SDS011;49136;47.416;19.402;2023-07-24T02:23:54;549.63;;;503.58;;
63050;SDS011;49136;47.416;19.402;2023-07-24T02:26:19;553.17;;;507.73;;
63050;SDS011;49136;47.416;19.402;2023-07-24T02:28:45;554.30;;;507.90;;
63050;SDS011;49136;47.416;19.402;2023-07-24T02:31:11;569.78;;;522.67;;
63050;SDS011;49136;47.416;19.402;2023-07-24T02:33:37;569.88;;;521.70;;
63050;SDS011;49136;47.416;19.402;2023-07-24T02:36:02;567.63;;;520.15;;
63050;SDS011;49136;47.416;19.402;2023-07-24T02:38:28;575.60;;;526.42;;
63050;SDS011;49136;47.416;19.402;2023-07-24T02:40:53;549.45;;;503.20;;
63050;SDS011;49136;47.416;19.402;2023-07-24T02:43:18;544.47;;;500.67;;
63050;SDS011;49136;47.416;19.402;2023-07-24T02:45:44;564.50;;;516.67;;
63050;SDS011;49136;47.416;19.402;2023-07-24T02:48:09;592.25;;;541.45;;
63050;SDS011;49136;47.416;19.402;2023-07-24T02:50:35;600.78;;;549.40;;
63050;SDS011;49136;47.416;19.402;2023-07-24T02:53:00;573.30;;;525.22;;
63050;SDS011;49136;47.416;19.402;2023-07-24T02:55:26;543.55;;;497.92;;
63050;SDS011;49136;47.416;19.402;2023-07-24T02:57:51;552.13;;;506.10;;
63050;SDS011;49136;47.416;19.402;2023-07-24T03:00:17;530.97;;;486.70;;
63050;SDS011;49136;47.416;19.402;2023-07-24T03:02:42;567.17;;;516.95;;
63050;SDS011;49136;47.416;19.402;2023-07-24T03:05:08;553.72;;;505.35;;
63050;SDS011;49136;47.416;19.402;2023-07-24T03:07:33;660.20;;;595.30;;
63050;SDS011;49136;47.416;19.402;2023-07-24T03:09:59;714.00;;;644.75;;
63050;SDS011;49136;47.416;19.402;2023-07-24T03:12:24;710.25;;;641.45;;
63050;SDS011;49136;47.416;19.402;2023-07-24T03:14:50;683.58;;;618.92;;
63050;SDS011;49136;47.416;19.402;2023-07-24T03:17:15;694.33;;;635.28;;
63050;SDS011;49136;47.416;19.402;2023-07-24T03:19:41;656.67;;;601.00;;
63050;SDS011;49136;47.416;19.402;2023-07-24T03:22:06;640.85;;;586.15;;
63050;SDS011;49136;47.416;19.402;2023-07-24T03:24:33;611.50;;;560.80;;
63050;SDS011;49136;47.416;19.402;2023-07-24T03:26:59;607.10;;;557.42;;
63050;SDS011;49136;47.416;19.402;2023-07-24T03:29:25;620.75;;;569.28;;
63050;SDS011;49136;47.416;19.402;2023-07-24T03:31:53;569.83;;;524.22;;
63050;SDS011;49136;47.416;19.402;2023-07-24T03:34:19;598.33;;;550.25;;
63050;SDS011;49136;47.416;19.402;2023-07-24T03:36:44;585.88;;;541.00;;
63050;SDS011;49136;47.416;19.402;2023-07-24T03:39:10;578.50;;;533.30;;
63050;SDS011;49136;47.416;19.402;2023-07-24T03:41:38;606.50;;;558.50;;
63050;SDS011;49136;47.416;19.402;2023-07-24T03:44:04;584.05;;;538.13;;
63050;SDS011;49136;47.416;19.402;2023-07-24T03:46:31;600.75;;;553.83;;
63050;SDS011;49136;47.416;19.402;2023-07-24T03:48:57;573.20;;;528.05;;
63050;SDS011;49136;47.416;19.402;2023-07-24T03:51:22;580.90;;;535.35;;
63050;SDS011;49136;47.416;19.402;2023-07-24T03:53:48;604.85;;;555.50;;
63050;SDS011;49136;47.416;19.402;2023-07-24T03:56:13;585.38;;;538.70;;
63050;SDS011;49136;47.416;19.402;2023-07-24T03:58:39;616.95;;;566.28;;
63050;SDS011;49136;47.416;19.402;2023-07-24T04:01:04;628.17;;;575.00;;
63050;SDS011;49136;47.416;19.402;2023-07-24T04:03:30;684.70;;;621.95;;
63050;SDS011;49136;47.416;19.402;2023-07-24T04:05:56;659.88;;;602.38;;
63050;SDS011;49136;47.416;19.402;2023-07-24T04:08:21;678.42;;;616.38;;
63050;SDS011;49136;47.416;19.402;2023-07-24T04:10:47;672.97;;;612.08;;
63050;SDS011;49136;47.416;19.402;2023-07-24T04:13:12;631.22;;;575.67;;
63050;SDS011;49136;47.416;19.402;2023-07-24T04:15:37;618.58;;;568.22;;
63050;SDS011;49136;47.416;19.402;2023-07-24T04:18:04;600.65;;;549.58;;
63050;SDS011;49136;47.416;19.402;2023-07-24T04:20:30;600.17;;;552.67;;
63050;SDS011;49136;47.416;19.402;2023-07-24T04:22:55;584.50;;;537.17;;
63050;SDS011;49136;47.416;19.402;2023-07-24T04:25:20;572.85;;;527.58;;
63050;SDS011;49136;47.416;19.402;2023-07-24T04:27:46;572.53;;;526.00;;
63050;SDS011;49136;47.416;19.402;2023-07-24T04:30:11;561.83;;;517.15;;
63050;SDS011;49136;47.416;19.402;2023-07-24T04:32:37;653.60;;;595.63;;
63050;SDS011;49136;47.416;19.402;2023-07-24T04:35:02;658.30;;;600.42;;
63050;SDS011;49136;47.416;19.402;2023-07-24T04:37:28;722.35;;;656.58;;
63050;SDS011;49136;47.416;19.402;2023-07-24T04:39:53;735.72;;;665.20;;
63050;SDS011;49136;47.416;19.402;2023-07-24T04:42:19;722.15;;;652.03;;
63050;SDS011;49136;47.416;19.402;2023-07-24T04:44:44;759.35;;;680.83;;
63050;SDS011;49136;47.416;19.402;2023-07-24T04:47:10;757.72;;;681.78;;
63050;SDS011;49136;47.416;19.402;2023-07-24T04:49:35;794.28;;;713.72;;
63050;SDS011;49136;47.416;19.402;2023-07-24T04:52:00;695.30;;;624.33;;
63050;SDS011;49136;47.416;19.402;2023-07-24T04:54:26;751.75;;;675.42;;
63050;SDS011;49136;47.416;19.402;2023-07-24T04:56:51;728.65;;;657.67;;
63050;SDS011;49136;47.416;19.402;2023-07-24T04:59:17;715.72;;;645.97;;
63050;SDS011;49136;47.416;19.402;2023-07-24T05:01:42;712.38;;;645.95;;
63050;SDS011;49136;47.416;19.402;2023-07-24T05:04:08;681.75;;;622.70;;
63050;SDS011;49136;47.416;19.402;2023-07-24T05:06:33;569.42;;;519.97;;
63050;SDS011;49136;47.416;19.402;2023-07-24T05:09:00;601.47;;;550.28;;
63050;SDS011;49136;47.416;19.402;2023-07-24T05:11:26;700.03;;;632.38;;
63050;SDS011;49136;47.416;19.402;2023-07-24T05:13:52;685.45;;;621.63;;
63050;SDS011;49136;47.416;19.402;2023-07-24T05:16:18;722.65;;;655.55;;
63050;SDS011;49136;47.416;19.402;2023-07-24T05:18:43;747.45;;;679.35;;
63050;SDS011;49136;47.416;19.402;2023-07-24T05:21:09;745.95;;;679.83;;
63050;SDS011;49136;47.416;19.402;2023-07-24T05:23:34;796.38;;;719.35;;
63050;SDS011;49136;47.416;19.402;2023-07-24T05:26:01;738.83;;;672.65;;
63050;SDS011;49136;47.416;19.402;2023-07-24T05:28:27;726.08;;;660.80;;
63050;SDS011;49136;47.416;19.402;2023-07-24T05:30:53;841.38;;;760.55;;
63050;SDS011;49136;47.416;19.402;2023-07-24T05:33:19;718.55;;;654.13;;
63050;SDS011;49136;47.416;19.402;2023-07-24T05:35:44;675.92;;;614.70;;
63050;SDS011;49136;47.416;19.402;2023-07-24T05:38:10;589.80;;;538.88;;
63050;SDS011;49136;47.416;19.402;2023-07-24T05:40:35;573.10;;;521.60;;
63050;SDS011;49136;47.416;19.402;2023-07-24T05:43:01;623.75;;;567.85;;
63050;SDS011;49136;47.416;19.402;2023-07-24T05:45:26;694.70;;;631.88;;
63050;SDS011;49136;47.416;19.402;2023-07-24T05:47:52;759.80;;;688.78;;
63050;SDS011;49136;47.416;19.402;2023-07-24T05:50:18;608.17;;;558.95;;
63050;SDS011;49136;47.416;19.402;2023-07-24T05:52:44;605.63;;;552.83;;
63050;SDS011;49136;47.416;19.402;2023-07-24T05:55:09;613.70;;;559.97;;
63050;SDS011;49136;47.416;19.402;2023-07-24T05:57:35;684.95;;;624.67;;
63050;SDS011;49136;47.416;19.402;2023-07-24T06:00:01;718.58;;;655.40;;
63050;SDS011;49136;47.416;19.402;2023-07-24T06:02:27;749.63;;;681.92;;
63050;SDS011;49136;47.416;19.402;2023-07-24T06:04:53;733.90;;;668.38;;
63050;SDS011;49136;47.416;19.402;2023-07-24T06:07:18;602.63;;;552.15;;
63050;SDS011;49136;47.416;19.402;2023-07-24T06:09:44;416.30;;;384.58;;
63050;SDS011;49136;47.416;19.402;2023-07-24T06:12:09;474.33;;;439.73;;
63050;SDS011;49136;47.416;19.402;2023-07-24T06:14:34;465.85;;;432.80;;
63050;SDS011;49136;47.416;19.402;2023-07-24T06:17:00;496.52;;;462.20;;
63050;SDS011;49136;47.416;19.402;2023-07-24T06:19:25;514.92;;;478.55;;
63050;SDS011;49136;47.416;19.402;2023-07-24T06:21:51;684.10;;;626.78;;
63050;SDS011;49136;47.416;19.402;2023-07-24T06:24:16;657.88;;;603.13;;
63050;SDS011;49136;47.416;19.402;2023-07-24T06:26:43;579.13;;;530.80;;
63050;SDS011;49136;47.416;19.402;2023-07-24T06:29:08;636.00;;;583.42;;
63050;SDS011;49136;47.416;19.402;2023-07-24T06:31:33;523.88;;;483.52;;
63050;SDS011;49136;47.416;19.402;2023-07-24T06:33:59;545.85;;;503.80;;
63050;SDS011;49136;47.416;19.402;2023-07-24T06:36:24;547.60;;;506.75;;
63050;SDS011;49136;47.416;19.402;2023-07-24T06:38:50;543.05;;;501.48;;
63050;SDS011;49136;47.416;19.402;2023-07-24T06:41:15;548.50;;;506.63;;
63050;SDS011;49136;47.416;19.402;2023-07-24T06:43:41;584.85;;;538.50;;
63050;SDS011;49136;47.416;19.402;2023-07-24T06:46:07;523.55;;;484.58;;
63050;SDS011;49136;47.416;19.402;2023-07-24T06:48:32;559.97;;;516.70;;
63050;SDS011;49136;47.416;19.402;2023-07-24T06:50:57;684.08;;;627.30;;
63050;SDS011;49136;47.416;19.402;2023-07-24T06:53:23;768.30;;;700.10;;
63050;SDS011;49136;47.416;19.402;2023-07-24T06:55:48;610.08;;;558.72;;
63050;SDS011;49136;47.416;19.402;2023-07-24T06:58:14;583.65;;;532.22;;
63050;SDS011;49136;47.416;19.402;2023-07-24T07:00:39;562.85;;;512.67;;
63050;SDS011;49136;47.416;19.402;2023-07-24T07:03:04;557.05;;;507.42;;
63050;SDS011;49136;47.416;19.402;2023-07-24T07:05:31;595.45;;;543.35;;
63050;SDS011;49136;47.416;19.402;2023-07-24T07:07:57;656.20;;;600.55;;
63050;SDS011;49136;47.416;19.402;2023-07-24T07:10:22;682.08;;;624.90;;
63050;SDS011;49136;47.416;19.402;2023-07-24T07:12:48;717.70;;;657.30;;
63050;SDS011;49136;47.416;19.402;2023-07-24T07:15:13;830.95;;;761.15;;
63050;SDS011;49136;47.416;19.402;2023-07-24T07:17:39;684.50;;;628.65;;
63050;SDS011;49136;47.416;19.402;2023-07-24T07:20:04;699.83;;;642.00;;
63050;SDS011;49136;47.416;19.402;2023-07-24T07:22:31;645.20;;;588.38;;
63050;SDS011;49136;47.416;19.402;2023-07-24T07:24:56;686.63;;;624.00;;
63050;SDS011;49136;47.416;19.402;2023-07-24T07:27:22;544.25;;;495.70;;
63050;SDS011;49136;47.416;19.402;2023-07-24T07:29:47;525.63;;;481.30;;
63050;SDS011;49136;47.416;19.402;2023-07-24T07:32:12;532.92;;;481.60;;
63050;SDS011;49136;47.416;19.402;2023-07-24T07:34:38;488.38;;;448.75;;
63050;SDS011;49136;47.416;19.402;2023-07-24T07:37:04;512.88;;;464.73;;
63050;SDS011;49136;47.416;19.402;2023-07-24T07:39:31;457.90;;;417.80;;
63050;SDS011;49136;47.416;19.402;2023-07-24T07:41:56;438.58;;;407.83;;
63050;SDS011;49136;47.416;19.402;2023-07-24T07:44:22;469.95;;;433.58;;
63050;SDS011;49136;47.416;19.402;2023-07-24T07:46:47;476.20;;;439.45;;
63050;SDS011;49136;47.416;19.402;2023-07-24T07:49:13;508.75;;;468.08;;
63050;SDS011;49136;47.416;19.402;2023-07-24T07:51:38;391.80;;;359.23;;
63050;SDS011;49136;47.416;19.402;2023-07-24T07:54:04;325.17;;;301.58;;
63050;SDS011;49136;47.416;19.402;2023-07-24T07:56:29;509.88;;;471.13;;
63050;SDS011;49136;47.416;19.402;2023-07-24T07:58:55;667.53;;;613.17;;
63050;SDS011;49136;47.416;19.402;2023-07-24T08:01:20;507.45;;;467.63;;
63050;SDS011;49136;47.416;19.402;2023-07-24T08:03:45;564.22;;;518.47;;
63050;SDS011;49136;47.416;19.402;2023-07-24T08:06:11;475.60;;;437.33;;
63050;SDS011;49136;47.416;19.402;2023-07-24T08:08:37;480.30;;;439.98;;
63050;SDS011;49136;47.416;19.402;2023-07-24T08:11:04;507.98;;;462.77;;
63050;SDS011;49136;47.416;19.402;2023-07-24T08:13:33;533.03;;;484.88;;
63050;SDS011;49136;47.416;19.402;2023-07-24T08:16:00;533.97;;;489.42;;
63050;SDS011;49136;47.416;19.402;2023-07-24T08:18:28;433.55;;;400.23;;
63050;SDS011;49136;47.416;19.402;2023-07-24T08:20:54;416.13;;;384.90;;
63050;SDS011;49136;47.416;19.402;2023-07-24T08:23:20;363.50;;;337.02;;
63050;SDS011;49136;47.416;19.402;2023-07-24T08:25:52;481.08;;;442.75;;
63050;SDS011;49136;47.416;19.402;2023-07-24T08:28:18;669.33;;;605.83;;
63050;SDS011;49136;47.416;19.402;2023-07-24T08:30:43;676.45;;;610.10;;
63050;SDS011;49136;47.416;19.402;2023-07-24T08:33:09;710.90;;;641.53;;
63050;SDS011;49136;47.416;19.402;2023-07-24T08:35:34;678.28;;;612.97;;
63050;SDS011;49136;47.416;19.402;2023-07-24T08:38:00;674.30;;;609.40;;
63050;SDS011;49136;47.416;19.402;2023-07-24T08:40:25;666.53;;;602.45;;
63050;SDS011;49136;47.416;19.402;2023-07-24T08:42:51;687.05;;;620.55;;
63050;SDS011;49136;47.416;19.402;2023-07-24T08:45:17;661.60;;;596.75;;
63050;SDS011;49136;47.416;19.402;2023-07-24T08:47:45;687.05;;;619.33;;
63050;SDS011;49136;47.416;19.402;2023-07-24T08:50:10;696.83;;;630.28;;
63050;SDS011;49136;47.416;19.402;2023-07-24T08:52:40;686.95;;;619.65;;
63050;SDS011;49136;47.416;19.402;2023-07-24T08:55:07;675.22;;;610.47;;
63050;SDS011;49136;47.416;19.402;2023-07-24T08:57:33;650.67;;;587.63;;
63050;SDS011;49136;47.416;19.402;2023-07-24T08:59:58;706.58;;;637.45;;
63050;SDS011;49136;47.416;19.402;2023-07-24T09:02:25;695.35;;;626.65;;
63050;SDS011;49136;47.416;19.402;2023-07-24T09:04:51;733.08;;;660.60;;
63050;SDS011;49136;47.416;19.402;2023-07-24T09:07:16;798.45;;;717.60;;
63050;SDS011;49136;47.416;19.402;2023-07-24T09:09:42;787.28;;;708.10;;
63050;SDS011;49136;47.416;19.402;2023-07-24T09:12:07;803.83;;;719.25;;
63050;SDS011;49136;47.416;19.402;2023-07-24T09:14:33;846.65;;;759.35;;
63050;SDS011;49136;47.416;19.402;2023-07-24T09:17:05;886.13;;;797.10;;
63050;SDS011;49136;47.416;19.402;2023-07-24T09:19:32;887.67;;;797.45;;
63050;SDS011;49136;47.416;19.402;2023-07-24T09:22:11;921.90;;;823.92;;
63050;SDS011;49136;47.416;19.402;2023-07-24T09:24:48;927.38;;;827.28;;
63050;SDS011;49136;47.416;19.402;2023-07-24T09:27:19;928.72;;;830.30;;
63050;SDS011;49136;47.416;19.402;2023-07-24T09:29:45;918.78;;;819.38;;
63050;SDS011;49136;47.416;19.402;2023-07-24T09:32:32;933.28;;;832.50;;
63050;SDS011;49136;47.416;19.402;2023-07-24T09:34:57;941.05;;;839.33;;
63050;SDS011;49136;47.416;19.402;2023-07-24T09:37:27;949.05;;;845.90;;
63050;SDS011;49136;47.416;19.402;2023-07-24T09:39:54;946.55;;;844.13;;
63050;SDS011;49136;47.416;19.402;2023-07-24T09:44:54;970.75;;;864.17;;
63050;SDS011;49136;47.416;19.402;2023-07-24T09:47:19;913.83;;;820.88;;
63050;SDS011;49136;47.416;19.402;2023-07-24T09:49:45;914.05;;;822.25;;
63050;SDS011;49136;47.416;19.402;2023-07-24T09:52:11;908.75;;;818.60;;
63050;SDS011;49136;47.416;19.402;2023-07-24T09:54:41;921.25;;;830.03;;
63050;SDS011;49136;47.416;19.402;2023-07-24T09:57:14;844.53;;;766.65;;
63050;SDS011;49136;47.416;19.402;2023-07-24T09:59:40;914.25;;;822.20;;
63050;SDS011;49136;47.416;19.402;2023-07-24T10:02:06;911.88;;;816.17;;
63050;SDS011;49136;47.416;19.402;2023-07-24T10:04:36;933.88;;;836.75;;
63050;SDS011;49136;47.416;19.402;2023-07-24T10:07:03;938.75;;;842.92;;
63050;SDS011;49136;47.416;19.402;2023-07-24T10:09:29;927.83;;;830.70;;
63050;SDS011;49136;47.416;19.402;2023-07-24T10:11:56;940.55;;;841.60;;
63050;SDS011;49136;47.416;19.402;2023-07-24T10:14:22;956.30;;;854.75;;
63050;SDS011;49136;47.416;19.402;2023-07-24T10:16:49;841.42;;;756.25;;
63050;SDS011;49136;47.416;19.402;2023-07-24T10:19:20;861.20;;;775.75;;
63050;SDS011;49136;47.416;19.402;2023-07-24T10:21:49;879.60;;;791.35;;
63050;SDS011;49136;47.416;19.402;2023-07-24T10:24:16;821.65;;;742.28;;
63050;SDS011;49136;47.416;19.402;2023-07-24T10:26:42;889.97;;;801.28;;
63050;SDS011;49136;47.416;19.402;2023-07-24T10:29:08;897.45;;;812.35;;
63050;SDS011;49136;47.416;19.402;2023-07-24T10:31:35;947.45;;;851.55;;
63050;SDS011;49136;47.416;19.402;2023-07-24T10:34:03;921.63;;;824.90;;
63050;SDS011;49136;47.416;19.402;2023-07-24T10:36:32;810.92;;;734.13;;
63050;SDS011;49136;47.416;19.402;2023-07-24T10:38:59;912.45;;;815.63;;
63050;SDS011;49136;47.416;19.402;2023-07-24T10:41:35;845.50;;;761.70;;
63050;SDS011;49136;47.416;19.402;2023-07-24T10:44:02;815.90;;;732.65;;
63050;SDS011;49136;47.416;19.402;2023-07-24T10:46:38;814.53;;;732.47;;
63050;SDS011;49136;47.416;19.402;2023-07-24T10:49:04;1001.17;;;845.92;;
63050;SDS011;49136;47.416;19.402;2023-07-24T10:51:30;869.63;;;776.83;;
63050;SDS011;49136;47.416;19.402;2023-07-24T10:54:02;837.78;;;752.28;;
63050;SDS011;49136;47.416;19.402;2023-07-24T10:56:28;1147.25;;;913.55;;
63050;SDS011;49136;47.416;19.402;2023-07-24T10:58:54;935.15;;;832.30;;
63050;SDS011;49136;47.416;19.402;2023-07-24T11:01:19;885.08;;;789.85;;
63050;SDS011;49136;47.416;19.402;2023-07-24T11:03:45;915.10;;;814.88;;
63050;SDS011;49136;47.416;19.402;2023-07-24T11:06:12;894.75;;;800.58;;
63050;SDS011;49136;47.416;19.402;2023-07-24T11:08:39;755.03;;;686.20;;
63050;SDS011;49136;47.416;19.402;2023-07-24T11:11:05;781.33;;;713.90;;
63050;SDS011;49136;47.416;19.402;2023-07-24T11:13:32;816.42;;;741.88;;
63050;SDS011;49136;47.416;19.402;2023-07-24T11:16:03;742.25;;;681.60;;
63050;SDS011;49136;47.416;19.402;2023-07-24T11:18:30;851.33;;;766.50;;
63050;SDS011;49136;47.416;19.402;2023-07-24T11:20:55;843.95;;;762.53;;
63050;SDS011;49136;47.416;19.402;2023-07-24T11:23:22;833.75;;;754.38;;
63050;SDS011;49136;47.416;19.402;2023-07-24T11:25:49;827.03;;;740.28;;
63050;SDS011;49136;47.416;19.402;2023-07-24T11:28:16;794.53;;;715.05;;
63050;SDS011;49136;47.416;19.402;2023-07-24T11:30:42;784.88;;;714.53;;
63050;SDS011;49136;47.416;19.402;2023-07-24T11:33:09;834.47;;;750.55;;
63050;SDS011;49136;47.416;19.402;2023-07-24T11:35:36;781.47;;;702.80;;
63050;SDS011;49136;47.416;19.402;2023-07-24T11:38:03;729.65;;;658.60;;
63050;SDS011;49136;47.416;19.402;2023-07-24T11:40:33;784.97;;;695.22;;
63050;SDS011;49136;47.416;19.402;2023-07-24T11:43:00;765.05;;;686.08;;
63050;SDS011;49136;47.416;19.402;2023-07-24T11:45:27;812.08;;;723.60;;
63050;SDS011;49136;47.416;19.402;2023-07-24T11:47:53;968.97;;;833.30;;
63050;SDS011;49136;47.416;19.402;2023-07-24T11:50:19;1012.78;;;852.70;;
63050;SDS011;49136;47.416;19.402;2023-07-24T11:52:45;953.33;;;834.88;;
63050;SDS011;49136;47.416;19.402;2023-07-24T11:55:15;1038.00;;;832.30;;
63050;SDS011;49136;47.416;19.402;2023-07-24T11:57:55;941.22;;;816.40;;
63050;SDS011;49136;47.416;19.402;2023-07-24T12:00:22;1085.57;;;833.17;;
63050;SDS011;49136;47.416;19.402;2023-07-24T12:02:47;1005.97;;;838.80;;
63050;SDS011;49136;47.416;19.402;2023-07-24T12:05:13;1040.75;;;860.00;;
63050;SDS011;49136;47.416;19.402;2023-07-24T12:07:39;1037.32;;;864.08;;
63050;SDS011;49136;47.416;19.402;2023-07-24T12:10:09;1067.07;;;870.20;;
63050;SDS011;49136;47.416;19.402;2023-07-24T12:12:38;1043.32;;;860.50;;
63050;SDS011;49136;47.416;19.402;2023-07-24T12:15:04;997.03;;;835.17;;
63050;SDS011;49136;47.416;19.402;2023-07-24T12:17:30;1036.20;;;861.63;;
63050;SDS011;49136;47.416;19.402;2023-07-24T12:19:55;974.22;;;826.25;;
63050;SDS011;49136;47.416;19.402;2023-07-24T12:22:21;1001.28;;;849.50;;
63050;SDS011;49136;47.416;19.402;2023-07-24T12:24:48;990.97;;;837.13;;
63050;SDS011;49136;47.416;19.402;2023-07-24T12:27:13;940.47;;;828.95;;
63050;SDS011;49136;47.416;19.402;2023-07-24T12:29:39;972.47;;;848.83;;
63050;SDS011;49136;47.416;19.402;2023-07-24T12:32:04;916.65;;;818.05;;
63050;SDS011;49136;47.416;19.402;2023-07-24T12:34:30;1055.18;;;882.78;;
63050;SDS011;49136;47.416;19.402;2023-07-24T12:36:55;938.50;;;761.50;;
63050;SDS011;49136;47.416;19.402;2023-07-24T12:39:21;973.20;;;786.00;;
63050;SDS011;49136;47.416;19.402;2023-07-24T12:41:46;985.60;;;767.80;;
63050;SDS011;49136;47.416;19.402;2023-07-24T12:44:12;1062.72;;;805.20;;
63050;SDS011;49136;47.416;19.402;2023-07-24T12:46:37;1039.32;;;799.85;;
63050;SDS011;49136;47.416;19.402;2023-07-24T12:49:02;942.53;;;731.58;;
63050;SDS011;49136;47.416;19.402;2023-07-24T12:51:28;902.75;;;720.13;;
63050;SDS011;49136;47.416;19.402;2023-07-24T12:53:53;860.72;;;689.08;;
63050;SDS011;49136;47.416;19.402;2023-07-24T12:56:18;1043.97;;;795.88;;
63050;SDS011;49136;47.416;19.402;2023-07-24T12:58:44;1067.15;;;830.75;;
63050;SDS011;49136;47.416;19.402;2023-07-24T13:01:09;979.45;;;768.03;;
63050;SDS011;49136;47.416;19.402;2023-07-24T13:03:35;989.38;;;783.10;;
63050;SDS011;49136;47.416;19.402;2023-07-24T13:06:00;875.33;;;692.60;;
63050;SDS011;49136;47.416;19.402;2023-07-24T13:08:26;988.78;;;739.63;;
63050;SDS011;49136;47.416;19.402;2023-07-24T13:10:51;1138.03;;;794.75;;
63050;SDS011;49136;47.416;19.402;2023-07-24T13:13:17;1053.50;;;796.88;;
63050;SDS011;49136;47.416;19.402;2023-07-24T13:15:42;951.42;;;745.03;;
63050;SDS011;49136;47.416;19.402;2023-07-24T13:18:08;904.08;;;722.10;;
63050;SDS011;49136;47.416;19.402;2023-07-24T13:20:33;1159.32;;;820.60;;
63050;SDS011;49136;47.416;19.402;2023-07-24T13:22:59;1171.68;;;835.10;;
63050;SDS011;49136;47.416;19.402;2023-07-24T13:25:24;1202.50;;;862.17;;
63050;SDS011;49136;47.416;19.402;2023-07-24T13:27:49;1098.20;;;826.88;;
63050;SDS011;49136;47.416;19.402;2023-07-24T13:30:15;1186.30;;;838.83;;
63050;SDS011;49136;47.416;19.402;2023-07-24T13:32:41;1185.57;;;864.17;;
63050;SDS011;49136;47.416;19.402;2023-07-24T13:35:07;1150.70;;;833.45;;
63050;SDS011;49136;47.416;19.402;2023-07-24T13:37:33;1248.32;;;882.20;;
63050;SDS011;49136;47.416;19.402;2023-07-24T13:39:58;1276.28;;;873.70;;
63050;SDS011;49136;47.416;19.402;2023-07-24T13:42:24;1064.00;;;810.40;;
63050;SDS011;49136;47.416;19.402;2023-07-24T13:44:49;1017.60;;;786.33;;
63050;SDS011;49136;47.416;19.402;2023-07-24T13:47:15;937.72;;;739.58;;